createdAt,value
2019-04-28T00:00:46.504Z,99808.41
2019-04-28T00:03:48.425Z,99809.50
2019-04-28T00:06:51.498Z,99802.20
2019-04-28T00:09:54.196Z,99811.05
2019-04-28T00:12:56.207Z,99806.46
2019-04-28T00:15:58.134Z,99806.87
2019-04-28T00:19:01.117Z,99806.87
2019-04-28T00:22:07.015Z,99805.75
2019-04-28T00:25:21.390Z,99804.83
2019-04-28T00:28:23.556Z,99813.84
2019-04-28T00:31:25.531Z,99813.90
2019-04-28T00:34:27.511Z,99816.40
2019-04-28T00:37:31.942Z,99821.92
2019-04-28T00:40:34.217Z,99816.83
2019-04-28T00:43:36.150Z,99818.27
2019-04-28T00:46:41.039Z,99822.67
2019-04-28T00:49:46.413Z,99814.40
2019-04-28T00:52:48.464Z,99812.16
2019-04-28T00:55:51.624Z,99822.35
2019-04-28T00:58:54.315Z,99820.14
2019-04-28T01:01:58.073Z,99826.37
2019-04-28T01:05:01.522Z,99831.06
2019-04-28T01:08:05.219Z,99825.00
2019-04-28T01:11:07.199Z,99827.20
2019-04-28T01:14:09.213Z,99821.46
2019-04-28T01:17:16.037Z,99826.77
2019-04-28T01:20:22.308Z,99824.36
2019-04-28T01:23:24.251Z,99832.67
2019-04-28T01:26:26.115Z,99835.45
2019-04-28T01:29:29.468Z,99833.03
2019-04-28T01:32:33.542Z,99836.83
2019-04-28T01:35:35.478Z,99842.31
2019-04-28T01:38:37.407Z,99843.67
2019-04-28T01:41:39.854Z,99853.83
2019-04-28T01:44:41.980Z,99853.04
2019-04-28T01:47:43.948Z,99859.95
2019-04-28T01:50:45.907Z,99858.36
2019-04-28T01:53:47.826Z,99858.36
2019-04-28T01:56:50.263Z,99866.38
2019-04-28T01:59:52.396Z,99863.66
2019-04-28T02:02:54.299Z,99866.67
2019-04-28T02:05:56.225Z,99859.30
2019-04-28T02:08:58.180Z,99856.27
2019-04-28T02:12:00.762Z,99859.80
2019-04-28T02:15:05.772Z,99857.88
2019-04-28T02:18:09.906Z,99856.75
2019-04-28T02:21:32.192Z,99866.61
2019-04-28T02:24:35.164Z,99870.69
2019-04-28T02:27:37.617Z,99869.03
2019-04-28T02:30:45.473Z,99867.08
2019-04-28T02:33:43.405Z,99868.74
2019-04-28T02:36:45.370Z,99864.29
2019-04-28T02:39:47.292Z,99858.50
2019-04-28T02:42:51.898Z,99864.25
2019-04-28T02:45:53.710Z,99862.55
2019-04-28T02:48:55.773Z,99856.52
2019-04-28T02:52:05.009Z,99862.55
2019-04-28T02:55:07.725Z,99862.00
2019-04-28T02:58:11.348Z,99858.17
2019-04-28T03:01:22.839Z,99868.05
2019-04-28T03:04:17.355Z,99870.86
2019-04-28T03:07:21.811Z,99876.59
2019-04-28T03:10:23.190Z,99875.51
2019-04-28T03:13:25.188Z,99890.88
2019-04-28T03:16:27.222Z,99892.77
2019-04-28T03:19:31.066Z,99887.56
2019-04-28T03:22:33.875Z,99893.92
2019-04-28T03:25:54.370Z,99889.55
2019-04-28T03:29:11.440Z,99898.01
2019-04-28T03:32:30.615Z,99893.11
2019-04-28T03:35:22.949Z,99893.96
2019-04-28T03:38:22.894Z,99905.83
2019-04-28T03:41:24.815Z,99904.14
2019-04-28T03:44:26.770Z,99908.29
2019-04-28T03:47:31.199Z,99918.80
2019-04-28T03:50:32.498Z,99918.48
2019-04-28T03:53:34.384Z,99925.66
2019-04-28T03:56:36.309Z,99925.91
2019-04-28T03:59:41.227Z,99935.21
2019-04-28T04:02:42.131Z,99939.84
2019-04-28T04:05:44.013Z,99939.87
2019-04-28T04:08:45.863Z,99952.26
2019-04-28T04:11:50.892Z,99948.09
2019-04-28T04:15:04.359Z,99953.03
2019-04-28T04:18:10.871Z,99958.27
2019-04-28T04:21:12.098Z,99960.23
2019-04-28T04:24:14.039Z,99954.17
2019-04-28T04:27:15.884Z,99966.52
2019-04-28T04:30:17.818Z,99971.97
2019-04-28T04:33:20.744Z,99972.46
2019-04-28T04:36:23.036Z,99974.67
2019-04-28T04:39:24.907Z,99986.76
2019-04-28T04:42:26.989Z,99990.81
2019-04-28T04:45:30.565Z,99987.20
2019-04-28T04:48:32.796Z,99996.21
2019-04-28T04:51:34.695Z,99996.98
2019-04-28T04:54:36.968Z,99999.94
2019-04-28T04:57:40.726Z,99999.59
2019-04-28T05:00:51.128Z,100002.61
2019-04-28T05:03:55.167Z,100006.65
2019-04-28T05:06:57.134Z,100012.06
2019-04-28T05:09:59.497Z,100017.66
2019-04-28T05:13:01.897Z,100014.80
2019-04-28T05:16:03.803Z,100015.31
2019-04-28T05:19:05.869Z,100019.44
2019-04-28T05:22:10.073Z,100034.44
2019-04-28T05:25:20.441Z,100039.55
2019-04-28T05:28:22.749Z,100045.20
2019-04-28T05:31:24.653Z,100047.56
2019-04-28T05:34:26.639Z,100042.66
2019-04-28T05:37:29.915Z,100039.95
2019-04-28T05:40:32.022Z,100051.03
2019-04-28T05:43:33.983Z,100043.25
2019-04-28T05:46:36.151Z,100019.34
2019-04-28T05:49:39.951Z,100050.83
2019-04-28T05:52:44.872Z,100051.97
2019-04-28T05:55:54.188Z,100048.60
2019-04-28T05:58:57.983Z,100049.78
2019-04-28T06:02:04.403Z,100062.34
2019-04-28T06:05:06.543Z,100056.22
2019-04-28T06:08:16.059Z,100064.19
2019-04-28T06:11:39.765Z,100058.53
2019-04-28T06:14:41.954Z,100062.95
2019-04-28T06:17:43.867Z,100059.67
2019-04-28T06:20:45.937Z,100059.33
2019-04-28T06:23:47.809Z,100066.88
2019-04-28T06:26:49.805Z,100080.51
2019-04-28T06:29:51.709Z,100080.23
2019-04-28T06:33:06.770Z,100084.03
2019-04-28T06:35:57.569Z,100080.25
2019-04-28T06:38:59.542Z,100072.90
2019-04-28T06:42:01.429Z,100069.45
2019-04-28T06:45:06.087Z,100081.04
2019-04-28T06:48:08.026Z,100078.63
2019-04-28T06:51:09.972Z,100071.39
2019-04-28T06:54:11.955Z,100088.64
2019-04-28T06:57:13.955Z,100092.39
2019-04-28T07:00:16.017Z,100089.56
2019-04-28T07:03:23.296Z,100094.98
2019-04-28T07:06:21.959Z,100095.44
2019-04-28T07:09:24.045Z,100100.46
2019-04-28T07:12:26.054Z,100090.34
2019-04-28T07:15:29.111Z,100094.36
2019-04-28T07:18:31.060Z,100101.20
2019-04-28T07:21:38.072Z,100101.49
2019-04-28T07:24:39.948Z,100099.86
2019-04-28T07:27:41.983Z,100105.44
2019-04-28T07:30:43.947Z,100109.39
2019-04-28T07:33:45.886Z,100106.31
2019-04-28T07:36:47.843Z,100109.17
2019-04-28T07:39:49.750Z,100117.98
2019-04-28T07:42:51.647Z,100104.03
2019-04-28T07:45:54.794Z,100108.52
2019-04-28T07:48:56.693Z,100113.67
2019-04-28T07:52:00.483Z,100112.25
2019-04-28T07:55:05.053Z,100118.67
2019-04-28T07:58:06.984Z,100112.83
2019-04-28T08:01:10.744Z,100118.06
2019-04-28T08:04:12.680Z,100112.56
2019-04-28T08:07:14.672Z,100109.49
2019-04-28T08:10:16.615Z,100107.80
2019-04-28T08:13:18.561Z,100107.75
2019-04-28T08:16:21.041Z,100106.66
2019-04-28T08:19:24.929Z,100103.08
2019-04-28T08:22:26.939Z,100118.58
2019-04-28T08:25:28.947Z,100107.95
2019-04-28T08:28:31.967Z,100116.03
2019-04-28T08:31:39.283Z,100117.05
2019-04-28T08:34:42.354Z,100117.16
2019-04-28T08:37:45.002Z,100121.03
2019-04-28T08:40:46.918Z,100128.47
2019-04-28T08:43:48.877Z,100129.22
2019-04-28T08:46:50.838Z,100137.11
2019-04-28T08:49:52.747Z,100134.31
2019-04-28T08:52:54.693Z,100146.78
2019-04-28T08:55:56.594Z,100152.47
2019-04-28T08:58:58.604Z,100149.30
2019-04-28T09:02:00.491Z,100156.39
2019-04-28T09:05:03.815Z,100152.14
2019-04-28T09:08:05.929Z,100150.93
2019-04-28T09:11:07.996Z,100154.23
2019-04-28T09:14:09.973Z,100161.67
2019-04-28T09:17:11.890Z,100159.53
2019-04-28T09:20:13.947Z,100161.75
2019-04-28T09:23:15.962Z,100154.12
2019-04-28T09:26:17.857Z,100159.50
2019-04-28T09:29:19.864Z,100162.96
2019-04-28T09:32:21.763Z,100162.96
2019-04-28T09:35:25.079Z,100166.88
2019-04-28T09:38:27.120Z,100162.59
2019-04-28T09:41:29.294Z,100159.69
2019-04-28T09:44:31.235Z,100164.89
2019-04-28T09:47:33.159Z,100165.58
2019-04-28T09:50:35.087Z,100168.41
2019-04-28T09:53:37.003Z,100168.54
2019-04-28T09:56:38.838Z,100175.31
2019-04-28T09:59:40.835Z,100171.63
2019-04-28T10:02:42.767Z,100174.47
2019-04-28T10:05:45.099Z,100175.83
2019-04-28T10:08:47.020Z,100178.27
2019-04-28T10:11:48.991Z,100173.73
2019-04-28T10:14:50.858Z,100167.11
2019-04-28T10:17:52.898Z,100172.59
2019-04-28T10:20:54.839Z,100165.66
2019-04-28T10:23:56.885Z,100165.16
2019-04-28T10:26:58.811Z,100174.95
2019-04-28T10:30:00.747Z,100170.52
2019-04-28T10:33:02.846Z,100176.91
2019-04-28T10:36:04.819Z,100174.31
2019-04-28T10:39:26.232Z,100173.56
2019-04-28T10:42:28.215Z,100168.55
2019-04-28T10:45:31.905Z,100178.19
2019-04-28T10:48:33.840Z,100179.73
2019-04-28T10:51:35.701Z,100164.83
2019-04-28T10:54:37.596Z,100165.36
2019-04-28T10:57:40.611Z,100155.60
2019-04-28T11:00:42.680Z,100171.81
2019-04-28T11:03:46.430Z,100161.89
2019-04-28T11:06:48.357Z,100167.47
2019-04-28T11:09:55.232Z,100154.22
2019-04-28T11:12:57.306Z,100159.78
2019-04-28T11:15:59.260Z,100161.97
2019-04-28T11:19:01.266Z,100155.34
2019-04-28T11:22:03.232Z,100161.81
2019-04-28T11:25:05.628Z,100171.08
2019-04-28T11:28:07.818Z,100162.02
2019-04-28T11:31:09.828Z,100163.71
2019-04-28T11:34:30.084Z,100147.09
2019-04-28T11:37:32.064Z,100162.00
2019-04-28T11:40:34.109Z,100152.44
2019-04-28T11:43:36.210Z,100147.17
2019-04-28T11:46:38.200Z,100160.46
2019-04-28T11:49:40.099Z,100154.05
2019-04-28T11:52:42.056Z,100160.18
2019-04-28T11:55:43.984Z,100159.72
2019-04-28T11:58:45.962Z,100157.97
2019-04-28T12:01:47.977Z,100152.91
2019-04-28T12:04:50.625Z,100158.91
2019-04-28T12:07:52.592Z,100159.98
2019-04-28T12:11:02.584Z,100152.97
2019-04-28T12:14:15.773Z,100159.87
2019-04-28T12:17:25.349Z,100162.63
2019-04-28T12:20:27.494Z,100151.96
2019-04-28T12:23:29.524Z,100154.27
2019-04-28T12:26:31.681Z,100162.96
2019-04-28T12:29:33.707Z,100157.12
2019-04-28T12:32:35.708Z,100153.41
2019-04-28T12:35:47.705Z,100151.67
2019-04-28T12:38:41.669Z,100150.87
2019-04-28T12:41:43.679Z,100148.47
2019-04-28T12:44:45.638Z,100144.53
2019-04-28T12:47:47.552Z,100147.34
2019-04-28T12:50:52.678Z,100147.39
2019-04-28T12:53:56.370Z,100149.40
2019-04-28T12:56:58.319Z,100147.80
2019-04-28T13:00:02.093Z,100148.05
2019-04-28T13:03:06.345Z,100136.99
2019-04-28T13:06:10.130Z,100132.84
2019-04-28T13:09:12.054Z,100133.15
2019-04-28T13:12:15.778Z,100135.32
2019-04-28T13:15:17.711Z,100130.68
2019-04-28T13:18:19.689Z,100131.91
2019-04-28T13:21:21.617Z,100137.84
2019-04-28T13:24:25.822Z,100137.31
2019-04-28T13:27:27.872Z,100141.03
2019-04-28T13:30:29.896Z,100130.59
2019-04-28T13:33:31.821Z,100130.11
2019-04-28T13:36:35.028Z,100134.55
2019-04-28T13:39:38.824Z,100127.31
2019-04-28T13:42:40.830Z,100130.47
2019-04-28T13:45:42.780Z,100128.69
2019-04-28T13:48:44.824Z,100131.13
2019-04-28T13:51:46.750Z,100118.78
2019-04-28T13:54:50.547Z,100125.66
2019-04-28T13:57:52.552Z,100121.31
2019-04-28T14:00:59.309Z,100117.51
2019-04-28T14:04:19.831Z,100119.61
2019-04-28T14:07:22.413Z,100125.64
2019-04-28T14:10:24.447Z,100126.05
2019-04-28T14:13:26.579Z,100125.41
2019-04-28T14:16:28.720Z,100120.95
2019-04-28T14:19:30.732Z,100117.84
2019-04-28T14:22:32.709Z,100121.09
2019-04-28T14:25:35.036Z,100133.49
2019-04-28T14:28:38.911Z,100128.78
2019-04-28T14:31:40.865Z,100134.79
2019-04-28T14:34:42.843Z,100137.58
2019-04-28T14:37:45.998Z,100134.84
2019-04-28T14:40:47.930Z,100128.42
2019-04-28T14:43:49.951Z,100125.89
2019-04-28T14:46:52.936Z,100131.06
2019-04-28T14:49:54.871Z,100132.49
2019-04-28T14:52:56.845Z,100132.53
2019-04-28T14:55:58.740Z,100140.23
2019-04-28T14:59:02.582Z,100144.78
2019-04-28T15:02:15.106Z,100150.06
2019-04-28T15:05:21.656Z,100136.26
2019-04-28T15:08:42.203Z,100133.28
2019-04-28T15:11:47.155Z,100147.67
2019-04-28T15:14:49.242Z,100147.28
2019-04-28T15:17:51.187Z,100150.04
2019-04-28T15:20:55.971Z,100151.62
2019-04-28T15:23:58.298Z,100151.77
2019-04-28T15:27:00.573Z,100149.88
2019-04-28T15:30:04.227Z,100156.06
2019-04-28T15:33:08.356Z,100157.45
2019-04-28T15:36:10.252Z,100155.75
2019-04-28T15:39:13.171Z,100164.47
2019-04-28T15:42:15.462Z,100170.36
2019-04-28T15:45:17.460Z,100162.90
2019-04-28T15:48:19.468Z,100166.47
2019-04-28T15:51:21.464Z,100168.67
2019-04-28T15:54:23.477Z,100165.57
2019-04-28T15:57:25.435Z,100167.95
2019-04-28T16:00:27.426Z,100169.31
2019-04-28T16:03:29.696Z,100169.36
2019-04-28T16:06:32.235Z,100167.22
2019-04-28T16:09:34.140Z,100172.16
2019-04-28T16:12:36.047Z,100174.77
2019-04-28T16:15:38.268Z,100171.92
2019-04-28T16:18:40.221Z,100170.94
2019-04-28T16:21:42.149Z,100177.19
2019-04-28T16:24:45.918Z,100180.73
2019-04-28T16:27:49.661Z,100180.56
2019-04-28T16:30:53.021Z,100183.80
2019-04-28T16:33:59.069Z,100181.03
2019-04-28T16:37:00.939Z,100185.31
2019-04-28T16:40:08.993Z,100181.33
2019-04-28T16:43:15.686Z,100176.75
2019-04-28T16:46:17.774Z,100180.64
2019-04-28T16:49:19.738Z,100180.28
2019-04-28T16:52:23.934Z,100181.42
2019-04-28T16:55:31.434Z,100178.88
2019-04-28T16:58:53.548Z,100184.93
2019-04-28T17:02:15.335Z,100181.27
2019-04-28T17:05:20.220Z,100190.31
2019-04-28T17:08:22.216Z,100191.62
2019-04-28T17:11:26.409Z,100188.36
2019-04-28T17:14:30.152Z,100188.56
2019-04-28T17:17:34.002Z,100195.25
2019-04-28T17:20:37.161Z,100192.86
2019-04-28T17:23:39.155Z,100194.44
2019-04-28T17:26:44.226Z,100189.28
2019-04-28T17:29:47.402Z,100194.02
2019-04-28T17:32:52.805Z,100192.59
2019-04-28T17:36:00.977Z,100191.02
2019-04-28T17:39:10.301Z,100196.55
2019-04-28T17:42:15.633Z,100192.05
2019-04-28T17:45:21.370Z,100196.25
2019-04-28T17:48:27.457Z,100201.27
2019-04-28T17:51:29.399Z,100204.65
2019-04-28T17:54:31.301Z,100203.36
2019-04-28T17:57:33.610Z,100200.92
2019-04-28T18:00:56.360Z,100198.00
2019-04-28T18:04:18.458Z,100204.48
2019-04-28T18:07:25.266Z,100206.20
2019-04-28T18:10:27.760Z,100208.28
2019-04-28T18:13:32.208Z,100212.44
2019-04-28T18:16:55.402Z,100218.48
2019-04-28T18:19:57.501Z,100218.82
2019-04-28T18:22:59.797Z,100221.42
2019-04-28T18:26:04.846Z,100218.86
2019-04-28T18:29:07.854Z,100220.89
2019-04-28T18:32:26.115Z,100224.80
2019-04-28T18:35:33.057Z,100228.41
2019-04-28T18:38:45.217Z,100233.39
2019-04-28T18:41:51.776Z,100239.28
2019-04-28T18:44:53.741Z,100237.64
2019-04-28T18:47:55.690Z,100250.77
2019-04-28T18:50:58.192Z,100248.33
2019-04-28T18:54:00.163Z,100249.70
2019-04-28T18:57:02.379Z,100257.30
2019-04-28T19:00:06.005Z,100253.75
2019-04-28T19:03:09.811Z,100257.64
2019-04-28T19:06:14.485Z,100254.95
2019-04-28T19:09:36.912Z,100252.19
2019-04-28T19:12:50.023Z,100255.13
2019-04-28T19:15:58.221Z,100246.63
2019-04-28T19:19:04.914Z,100242.95
2019-04-28T19:22:06.900Z,100243.90
2019-04-28T19:25:09.563Z,100240.10
2019-04-28T19:28:11.501Z,100240.38
2019-04-28T19:31:15.558Z,100240.42
2019-04-28T19:34:17.795Z,100244.31
2019-04-28T19:37:20.554Z,100242.92
2019-04-28T19:40:22.900Z,100249.89
2019-04-28T19:43:24.898Z,100249.08
2019-04-28T19:46:28.134Z,100246.00
2019-04-28T19:49:30.082Z,100246.87
2019-04-28T19:52:34.256Z,100246.87
2019-04-28T19:55:45.175Z,100246.06
2019-04-28T19:58:49.975Z,100253.05
2019-04-28T20:01:51.899Z,100243.13
2019-04-28T20:04:55.668Z,100238.73
2019-04-28T20:07:57.623Z,100245.42
2019-04-28T20:11:00.740Z,100240.52
2019-04-28T20:14:04.833Z,100239.67
2019-04-28T20:17:06.702Z,100239.87
2019-04-28T20:20:11.397Z,100235.76
2019-04-28T20:23:14.683Z,100240.77
2019-04-28T20:26:16.658Z,100235.28
2019-04-28T20:29:23.172Z,100230.55
2019-04-28T20:32:24.717Z,100231.92
2019-04-28T20:35:46.818Z,100234.18
2019-04-28T20:38:50.636Z,100228.97
2019-04-28T20:41:52.672Z,100229.36
2019-04-28T20:44:54.950Z,100223.59
2019-04-28T20:47:56.982Z,100224.69
2019-04-28T20:50:58.940Z,100231.36
2019-04-28T20:54:00.914Z,100230.52
2019-04-28T20:57:02.901Z,100235.80
2019-04-28T21:00:05.320Z,100231.69
2019-04-28T21:03:11.188Z,100235.56
2019-04-28T21:06:13.082Z,100231.81
2019-04-28T21:09:15.035Z,100226.07
2019-04-28T21:12:16.951Z,100218.97
2019-04-28T21:15:18.917Z,100223.36
2019-04-28T21:18:20.860Z,100215.95
2019-04-28T21:21:22.810Z,100217.91
2019-04-28T21:24:24.810Z,100210.55
2019-04-28T21:27:26.741Z,100210.78
2019-04-28T21:30:28.688Z,100217.42
2019-04-28T21:33:30.632Z,100211.95
2019-04-28T21:36:32.521Z,100210.86
2019-04-28T21:39:34.934Z,100206.70
2019-04-28T21:42:44.510Z,100209.43
2019-04-28T21:45:50.373Z,100199.80
2019-04-28T21:48:53.875Z,100202.63
2019-04-28T21:51:55.826Z,100198.80
2019-04-28T21:54:57.889Z,100196.63
2019-04-28T21:57:59.806Z,100199.05
2019-04-28T22:01:02.162Z,100194.13
2019-04-28T22:04:05.924Z,100181.80
2019-04-28T22:07:07.842Z,100184.89
2019-04-28T22:10:09.910Z,100183.86
2019-04-28T22:13:11.932Z,100187.17
2019-04-28T22:16:13.832Z,100184.96
2019-04-28T22:19:15.903Z,100177.78
2019-04-28T22:22:17.849Z,100180.58
2019-04-28T22:25:24.231Z,100171.19
2019-04-28T22:28:26.246Z,100167.39
2019-04-28T22:31:28.147Z,100160.30
2019-04-28T22:34:30.137Z,100155.14
2019-04-28T22:37:32.063Z,100152.42
2019-04-28T22:40:34.513Z,100149.95
2019-04-28T22:43:36.422Z,100141.41
2019-04-28T22:46:38.421Z,100143.10
2019-04-28T22:49:40.907Z,100134.84
2019-04-28T22:52:42.823Z,100142.02
2019-04-28T22:55:46.896Z,100143.14
2019-04-28T22:58:56.697Z,100143.14
2019-04-28T23:02:00.458Z,100137.61
2019-04-28T23:05:06.577Z,100141.76
2019-04-28T23:08:08.543Z,100147.84
2019-04-28T23:11:10.385Z,100136.05
2019-04-28T23:14:12.317Z,100142.90
2019-04-28T23:17:17.094Z,100138.48
2019-04-28T23:20:19.344Z,100149.52
2019-04-28T23:23:21.271Z,100141.00
2019-04-28T23:26:23.259Z,100140.66
2019-04-28T23:29:25.156Z,100136.22
2019-04-28T23:32:27.072Z,100128.55
2019-04-28T23:35:29.011Z,100122.75
2019-04-28T23:38:31.085Z,100123.64
2019-04-28T23:41:37.984Z,100124.71
2019-04-28T23:44:39.896Z,100116.17
2019-04-28T23:47:41.776Z,100117.59
2019-04-28T23:51:02.142Z,100119.70
2019-04-28T23:54:05.904Z,100126.85
2019-04-28T23:57:07.962Z,100119.51
